sensor_id;sensor_type;location;lat;lon;timestamp;temperature;humidity
44223;DHT22;29895;48.804;9.386;2023-05-20T00:00:08;11.10;99.90
44223;DHT22;29895;48.804;9.386;2023-05-20T00:02:34;11.20;99.90
44223;DHT22;29895;48.804;9.386;2023-05-20T00:05:00;11.20;99.90
44223;DHT22;29895;48.804;9.386;2023-05-20T00:07:25;11.10;99.90
44223;DHT22;29895;48.804;9.386;2023-05-20T00:09:51;11.10;99.90
44223;DHT22;29895;48.804;9.386;2023-05-20T00:12:17;11.10;99.90
44223;DHT22;29895;48.804;9.386;2023-05-20T00:14:43;11.10;99.90
44223;DHT22;29895;48.804;9.386;2023-05-20T00:17:08;11.20;99.90
44223;DHT22;29895;48.804;9.386;2023-05-20T00:19:34;11.20;99.90
44223;DHT22;29895;48.804;9.386;2023-05-20T00:22:00;11.10;99.90
44223;DHT22;29895;48.804;9.386;2023-05-20T00:24:26;11.20;99.90
44223;DHT22;29895;48.804;9.386;2023-05-20T00:26:52;11.20;99.90
44223;DHT22;29895;48.804;9.386;2023-05-20T00:29:20;11.20;99.90
44223;DHT22;29895;48.804;9.386;2023-05-20T00:31:45;11.10;99.90
44223;DHT22;29895;48.804;9.386;2023-05-20T00:34:11;11.20;99.90
44223;DHT22;29895;48.804;9.386;2023-05-20T00:36:37;11.20;99.90
44223;DHT22;29895;48.804;9.386;2023-05-20T00:39:03;11.10;99.90
44223;DHT22;29895;48.804;9.386;2023-05-20T00:41:28;11.10;99.90
44223;DHT22;29895;48.804;9.386;2023-05-20T00:43:54;11.20;99.90
44223;DHT22;29895;48.804;9.386;2023-05-20T00:46:25;11.20;99.90
44223;DHT22;29895;48.804;9.386;2023-05-20T00:48:51;11.10;99.90
44223;DHT22;29895;48.804;9.386;2023-05-20T00:51:19;11.20;99.90
44223;DHT22;29895;48.804;9.386;2023-05-20T00:53:45;11.20;99.90
44223;DHT22;29895;48.804;9.386;2023-05-20T00:56:11;11.10;99.90
44223;DHT22;29895;48.804;9.386;2023-05-20T00:58:37;11.10;99.90
44223;DHT22;29895;48.804;9.386;2023-05-20T01:01:03;11.10;99.90
44223;DHT22;29895;48.804;9.386;2023-05-20T01:03:29;11.10;99.90
44223;DHT22;29895;48.804;9.386;2023-05-20T01:05:55;11.10;99.90
44223;DHT22;29895;48.804;9.386;2023-05-20T01:08:22;11.10;99.90
44223;DHT22;29895;48.804;9.386;2023-05-20T01:10:54;11.10;99.90
44223;DHT22;29895;48.804;9.386;2023-05-20T01:13:24;11.20;99.90
44223;DHT22;29895;48.804;9.386;2023-05-20T01:15:54;11.20;99.90
44223;DHT22;29895;48.804;9.386;2023-05-20T01:18:22;11.30;99.90
44223;DHT22;29895;48.804;9.386;2023-05-20T01:20:52;11.40;99.90
44223;DHT22;29895;48.804;9.386;2023-05-20T01:23:19;11.40;99.90
44223;DHT22;29895;48.804;9.386;2023-05-20T01:25:46;11.40;99.90
44223;DHT22;29895;48.804;9.386;2023-05-20T01:28:11;11.40;99.90
44223;DHT22;29895;48.804;9.386;2023-05-20T01:30:46;11.40;99.90
44223;DHT22;29895;48.804;9.386;2023-05-20T01:33:13;11.40;99.90
44223;DHT22;29895;48.804;9.386;2023-05-20T01:35:41;11.40;99.90
44223;DHT22;29895;48.804;9.386;2023-05-20T01:38:07;11.40;99.90
44223;DHT22;29895;48.804;9.386;2023-05-20T01:40:33;11.30;99.90
44223;DHT22;29895;48.804;9.386;2023-05-20T01:43:00;11.30;99.90
44223;DHT22;29895;48.804;9.386;2023-05-20T01:45:27;11.20;99.90
44223;DHT22;29895;48.804;9.386;2023-05-20T01:47:52;11.20;99.90
44223;DHT22;29895;48.804;9.386;2023-05-20T01:50:18;11.10;99.90
44223;DHT22;29895;48.804;9.386;2023-05-20T01:52:44;11.10;99.90
44223;DHT22;29895;48.804;9.386;2023-05-20T01:55:10;11.00;99.90
44223;DHT22;29895;48.804;9.386;2023-05-20T01:57:35;11.00;99.90
44223;DHT22;29895;48.804;9.386;2023-05-20T02:00:01;11.00;99.90
44223;DHT22;29895;48.804;9.386;2023-05-20T02:02:27;10.90;99.90
44223;DHT22;29895;48.804;9.386;2023-05-20T02:04:53;10.90;99.90
44223;DHT22;29895;48.804;9.386;2023-05-20T02:07:19;10.90;99.90
44223;DHT22;29895;48.804;9.386;2023-05-20T02:09:45;10.90;99.90
44223;DHT22;29895;48.804;9.386;2023-05-20T02:12:11;10.90;99.90
44223;DHT22;29895;48.804;9.386;2023-05-20T02:14:45;10.90;99.90
44223;DHT22;29895;48.804;9.386;2023-05-20T02:17:11;10.90;99.90
44223;DHT22;29895;48.804;9.386;2023-05-20T02:19:37;10.90;99.90
44223;DHT22;29895;48.804;9.386;2023-05-20T02:22:02;11.00;99.90
44223;DHT22;29895;48.804;9.386;2023-05-20T02:24:28;10.90;99.90
44223;DHT22;29895;48.804;9.386;2023-05-20T02:26:54;11.00;99.90
44223;DHT22;29895;48.804;9.386;2023-05-20T02:29:21;11.00;99.90
44223;DHT22;29895;48.804;9.386;2023-05-20T02:31:47;11.00;99.90
44223;DHT22;29895;48.804;9.386;2023-05-20T02:34:14;11.00;99.90
44223;DHT22;29895;48.804;9.386;2023-05-20T02:36:40;10.90;99.90
44223;DHT22;29895;48.804;9.386;2023-05-20T02:39:06;10.90;99.90
44223;DHT22;29895;48.804;9.386;2023-05-20T02:41:32;10.90;99.90
44223;DHT22;29895;48.804;9.386;2023-05-20T02:43:58;10.90;99.90
44223;DHT22;29895;48.804;9.386;2023-05-20T02:46:23;10.90;99.90
44223;DHT22;29895;48.804;9.386;2023-05-20T02:48:49;10.90;99.90
44223;DHT22;29895;48.804;9.386;2023-05-20T02:51:15;10.90;99.90
44223;DHT22;29895;48.804;9.386;2023-05-20T02:53:40;10.90;99.90
44223;DHT22;29895;48.804;9.386;2023-05-20T02:56:06;10.90;99.90
44223;DHT22;29895;48.804;9.386;2023-05-20T02:58:33;10.90;99.90
44223;DHT22;29895;48.804;9.386;2023-05-20T03:01:00;10.90;99.90
44223;DHT22;29895;48.804;9.386;2023-05-20T03:03:26;10.90;99.90
44223;DHT22;29895;48.804;9.386;2023-05-20T03:05:52;10.80;99.90
44223;DHT22;29895;48.804;9.386;2023-05-20T03:08:20;10.80;99.90
44223;DHT22;29895;48.804;9.386;2023-05-20T03:10:46;10.70;99.90
44223;DHT22;29895;48.804;9.386;2023-05-20T03:13:12;10.70;99.90
44223;DHT22;29895;48.804;9.386;2023-05-20T03:15:40;10.60;99.90
44223;DHT22;29895;48.804;9.386;2023-05-20T03:18:06;10.60;99.90
44223;DHT22;29895;48.804;9.386;2023-05-20T03:20:33;10.60;99.90
44223;DHT22;29895;48.804;9.386;2023-05-20T03:23:01;10.60;99.90
44223;DHT22;29895;48.804;9.386;2023-05-20T03:25:27;10.50;99.90
44223;DHT22;29895;48.804;9.386;2023-05-20T03:27:53;10.50;99.90
44223;DHT22;29895;48.804;9.386;2023-05-20T03:30:19;10.40;99.90
44223;DHT22;29895;48.804;9.386;2023-05-20T03:32:45;10.40;99.90
44223;DHT22;29895;48.804;9.386;2023-05-20T03:35:11;10.30;99.90
44223;DHT22;29895;48.804;9.386;2023-05-20T03:37:37;10.30;99.90
44223;DHT22;29895;48.804;9.386;2023-05-20T03:40:03;10.40;99.90
44223;DHT22;29895;48.804;9.386;2023-05-20T03:42:31;10.40;99.90
44223;DHT22;29895;48.804;9.386;2023-05-20T03:44:57;10.40;99.90
44223;DHT22;29895;48.804;9.386;2023-05-20T03:47:25;10.50;99.90
44223;DHT22;29895;48.804;9.386;2023-05-20T03:49:50;10.50;99.90
44223;DHT22;29895;48.804;9.386;2023-05-20T03:52:16;10.50;99.90
44223;DHT22;29895;48.804;9.386;2023-05-20T03:54:42;10.50;99.90
44223;DHT22;29895;48.804;9.386;2023-05-20T03:57:07;10.50;99.90
44223;DHT22;29895;48.804;9.386;2023-05-20T03:59:35;10.40;99.90
44223;DHT22;29895;48.804;9.386;2023-05-20T04:02:01;10.40;99.90
44223;DHT22;29895;48.804;9.386;2023-05-20T04:04:27;10.40;99.90
44223;DHT22;29895;48.804;9.386;2023-05-20T04:06:53;10.30;99.90
44223;DHT22;29895;48.804;9.386;2023-05-20T04:09:19;10.30;99.90
44223;DHT22;29895;48.804;9.386;2023-05-20T04:11:45;10.30;99.90
44223;DHT22;29895;48.804;9.386;2023-05-20T04:14:10;10.30;99.90
44223;DHT22;29895;48.804;9.386;2023-05-20T04:16:36;10.30;99.90
44223;DHT22;29895;48.804;9.386;2023-05-20T04:19:02;10.30;99.90
44223;DHT22;29895;48.804;9.386;2023-05-20T04:21:28;10.40;99.90
44223;DHT22;29895;48.804;9.386;2023-05-20T04:23:54;10.60;99.90
44223;DHT22;29895;48.804;9.386;2023-05-20T04:26:20;10.90;99.90
44223;DHT22;29895;48.804;9.386;2023-05-20T04:28:45;11.10;99.90
44223;DHT22;29895;48.804;9.386;2023-05-20T04:31:14;11.10;99.90
44223;DHT22;29895;48.804;9.386;2023-05-20T04:33:40;11.30;99.90
44223;DHT22;29895;48.804;9.386;2023-05-20T04:36:09;11.40;99.90
44223;DHT22;29895;48.804;9.386;2023-05-20T04:38:36;11.50;99.90
44223;DHT22;29895;48.804;9.386;2023-05-20T04:41:02;11.60;99.90
44223;DHT22;29895;48.804;9.386;2023-05-20T04:43:28;11.60;99.90
44223;DHT22;29895;48.804;9.386;2023-05-20T04:45:55;11.70;99.90
44223;DHT22;29895;48.804;9.386;2023-05-20T04:48:21;11.70;99.90
44223;DHT22;29895;48.804;9.386;2023-05-20T04:50:47;11.80;99.90
44223;DHT22;29895;48.804;9.386;2023-05-20T04:53:22;11.80;99.90
44223;DHT22;29895;48.804;9.386;2023-05-20T04:55:48;12.00;99.90
44223;DHT22;29895;48.804;9.386;2023-05-20T04:58:21;12.20;99.90
44223;DHT22;29895;48.804;9.386;2023-05-20T05:00:49;12.30;99.90
44223;DHT22;29895;48.804;9.386;2023-05-20T05:03:15;12.50;99.90
44223;DHT22;29895;48.804;9.386;2023-05-20T05:05:41;12.70;99.90
44223;DHT22;29895;48.804;9.386;2023-05-20T05:08:07;12.90;99.90
44223;DHT22;29895;48.804;9.386;2023-05-20T05:10:33;13.00;99.90
44223;DHT22;29895;48.804;9.386;2023-05-20T05:12:59;13.10;99.90
44223;DHT22;29895;48.804;9.386;2023-05-20T05:15:25;13.40;99.90
44223;DHT22;29895;48.804;9.386;2023-05-20T05:17:51;13.40;99.90
44223;DHT22;29895;48.804;9.386;2023-05-20T05:20:17;13.30;99.90
44223;DHT22;29895;48.804;9.386;2023-05-20T05:22:43;13.30;99.90
44223;DHT22;29895;48.804;9.386;2023-05-20T05:25:12;13.40;99.90
44223;DHT22;29895;48.804;9.386;2023-05-20T05:27:38;13.40;99.90
44223;DHT22;29895;48.804;9.386;2023-05-20T05:30:05;13.70;99.90
44223;DHT22;29895;48.804;9.386;2023-05-20T05:32:31;13.90;99.90
44223;DHT22;29895;48.804;9.386;2023-05-20T05:34:57;14.20;99.90
44223;DHT22;29895;48.804;9.386;2023-05-20T05:37:23;14.50;99.90
44223;DHT22;29895;48.804;9.386;2023-05-20T05:39:48;14.90;99.90
44223;DHT22;29895;48.804;9.386;2023-05-20T05:42:14;15.10;99.90
44223;DHT22;29895;48.804;9.386;2023-05-20T05:44:40;15.10;99.90
44223;DHT22;29895;48.804;9.386;2023-05-20T05:47:05;15.10;99.90
44223;DHT22;29895;48.804;9.386;2023-05-20T05:49:32;15.30;99.90
44223;DHT22;29895;48.804;9.386;2023-05-20T05:51:57;15.80;99.90
44223;DHT22;29895;48.804;9.386;2023-05-20T05:54:23;16.00;99.90
44223;DHT22;29895;48.804;9.386;2023-05-20T05:56:52;16.30;99.90
44223;DHT22;29895;48.804;9.386;2023-05-20T05:59:18;16.50;99.90
44223;DHT22;29895;48.804;9.386;2023-05-20T06:01:44;17.00;99.90
44223;DHT22;29895;48.804;9.386;2023-05-20T06:04:10;17.60;99.90
44223;DHT22;29895;48.804;9.386;2023-05-20T06:06:36;18.10;99.90
44223;DHT22;29895;48.804;9.386;2023-05-20T06:09:02;18.50;99.90
44223;DHT22;29895;48.804;9.386;2023-05-20T06:11:28;18.40;99.90
44223;DHT22;29895;48.804;9.386;2023-05-20T06:13:54;18.30;99.90
44223;DHT22;29895;48.804;9.386;2023-05-20T06:16:19;18.40;99.90
44223;DHT22;29895;48.804;9.386;2023-05-20T06:18:46;18.20;99.90
44223;DHT22;29895;48.804;9.386;2023-05-20T06:21:11;17.60;99.90
44223;DHT22;29895;48.804;9.386;2023-05-20T06:23:37;17.50;99.90
44223;DHT22;29895;48.804;9.386;2023-05-20T06:26:03;17.90;99.90
44223;DHT22;29895;48.804;9.386;2023-05-20T06:28:29;18.20;99.90
44223;DHT22;29895;48.804;9.386;2023-05-20T06:30:56;18.30;99.90
44223;DHT22;29895;48.804;9.386;2023-05-20T06:33:25;18.10;99.90
44223;DHT22;29895;48.804;9.386;2023-05-20T06:35:51;17.80;99.90
44223;DHT22;29895;48.804;9.386;2023-05-20T06:38:18;18.30;99.90
44223;DHT22;29895;48.804;9.386;2023-05-20T06:40:44;18.70;99.90
44223;DHT22;29895;48.804;9.386;2023-05-20T06:43:09;18.60;99.90
44223;DHT22;29895;48.804;9.386;2023-05-20T06:45:35;18.60;99.90
44223;DHT22;29895;48.804;9.386;2023-05-20T06:48:01;19.20;99.90
44223;DHT22;29895;48.804;9.386;2023-05-20T06:50:26;19.60;99.90
44223;DHT22;29895;48.804;9.386;2023-05-20T06:52:55;19.30;99.90
44223;DHT22;29895;48.804;9.386;2023-05-20T06:55:20;19.20;99.90
44223;DHT22;29895;48.804;9.386;2023-05-20T06:57:46;18.70;99.90
44223;DHT22;29895;48.804;9.386;2023-05-20T07:00:12;18.90;99.90
44223;DHT22;29895;48.804;9.386;2023-05-20T07:02:38;18.90;99.90
44223;DHT22;29895;48.804;9.386;2023-05-20T07:05:05;18.50;99.90
44223;DHT22;29895;48.804;9.386;2023-05-20T07:07:31;18.80;99.90
44223;DHT22;29895;48.804;9.386;2023-05-20T07:09:57;19.70;99.90
44223;DHT22;29895;48.804;9.386;2023-05-20T07:12:23;20.20;99.90
44223;DHT22;29895;48.804;9.386;2023-05-20T07:14:49;20.40;99.90
44223;DHT22;29895;48.804;9.386;2023-05-20T07:17:14;19.20;99.90
44223;DHT22;29895;48.804;9.386;2023-05-20T07:19:40;18.50;99.90
44223;DHT22;29895;48.804;9.386;2023-05-20T07:22:06;19.00;99.90
44223;DHT22;29895;48.804;9.386;2023-05-20T07:24:32;19.40;99.90
44223;DHT22;29895;48.804;9.386;2023-05-20T07:26:58;20.00;99.90
44223;DHT22;29895;48.804;9.386;2023-05-20T07:29:23;20.30;99.90
44223;DHT22;29895;48.804;9.386;2023-05-20T07:31:49;19.90;99.90
44223;DHT22;29895;48.804;9.386;2023-05-20T07:34:15;19.20;99.90
44223;DHT22;29895;48.804;9.386;2023-05-20T07:36:40;18.90;99.90
44223;DHT22;29895;48.804;9.386;2023-05-20T07:39:06;19.20;99.90
44223;DHT22;29895;48.804;9.386;2023-05-20T07:41:35;19.80;99.90
44223;DHT22;29895;48.804;9.386;2023-05-20T07:44:03;19.90;99.90
44223;DHT22;29895;48.804;9.386;2023-05-20T07:46:29;19.10;99.90
44223;DHT22;29895;48.804;9.386;2023-05-20T07:48:55;18.30;99.90
44223;DHT22;29895;48.804;9.386;2023-05-20T07:51:20;18.20;99.90
44223;DHT22;29895;48.804;9.386;2023-05-20T07:53:46;18.30;99.90
44223;DHT22;29895;48.804;9.386;2023-05-20T07:56:12;18.90;99.90
44223;DHT22;29895;48.804;9.386;2023-05-20T07:58:40;18.80;99.90
44223;DHT22;29895;48.804;9.386;2023-05-20T08:01:06;19.50;99.90
44223;DHT22;29895;48.804;9.386;2023-05-20T08:03:34;20.00;99.90
44223;DHT22;29895;48.804;9.386;2023-05-20T08:06:01;19.90;99.90
44223;DHT22;29895;48.804;9.386;2023-05-20T08:08:26;20.00;99.90
44223;DHT22;29895;48.804;9.386;2023-05-20T08:10:55;20.40;99.90
44223;DHT22;29895;48.804;9.386;2023-05-20T08:13:21;20.00;99.90
44223;DHT22;29895;48.804;9.386;2023-05-20T08:15:47;20.70;99.90
44223;DHT22;29895;48.804;9.386;2023-05-20T08:18:14;21.00;99.90
44223;DHT22;29895;48.804;9.386;2023-05-20T08:20:40;20.80;99.90
44223;DHT22;29895;48.804;9.386;2023-05-20T08:23:06;20.10;99.90
44223;DHT22;29895;48.804;9.386;2023-05-20T08:25:32;19.60;99.90
44223;DHT22;29895;48.804;9.386;2023-05-20T08:28:00;19.90;99.90
44223;DHT22;29895;48.804;9.386;2023-05-20T08:30:28;19.90;99.90
44223;DHT22;29895;48.804;9.386;2023-05-20T08:32:54;20.20;99.90
44223;DHT22;29895;48.804;9.386;2023-05-20T08:35:21;20.40;99.90
44223;DHT22;29895;48.804;9.386;2023-05-20T08:37:46;20.50;99.90
44223;DHT22;29895;48.804;9.386;2023-05-20T08:40:12;20.40;99.90
44223;DHT22;29895;48.804;9.386;2023-05-20T08:42:42;19.70;99.90
44223;DHT22;29895;48.804;9.386;2023-05-20T08:45:11;19.40;99.90
44223;DHT22;29895;48.804;9.386;2023-05-20T08:47:41;19.90;99.90
44223;DHT22;29895;48.804;9.386;2023-05-20T08:50:15;20.40;99.90
44223;DHT22;29895;48.804;9.386;2023-05-20T08:52:45;20.70;99.90
44223;DHT22;29895;48.804;9.386;2023-05-20T08:55:18;21.20;99.90
44223;DHT22;29895;48.804;9.386;2023-05-20T08:57:52;21.90;99.90
44223;DHT22;29895;48.804;9.386;2023-05-20T09:00:22;22.20;99.90
44223;DHT22;29895;48.804;9.386;2023-05-20T09:02:53;21.50;99.90
44223;DHT22;29895;48.804;9.386;2023-05-20T09:05:19;21.20;99.90
44223;DHT22;29895;48.804;9.386;2023-05-20T09:07:45;21.60;99.90
44223;DHT22;29895;48.804;9.386;2023-05-20T09:10:11;21.60;99.90
44223;DHT22;29895;48.804;9.386;2023-05-20T09:12:37;21.90;99.90
44223;DHT22;29895;48.804;9.386;2023-05-20T09:15:04;22.40;99.90
44223;DHT22;29895;48.804;9.386;2023-05-20T09:17:35;22.70;99.90
44223;DHT22;29895;48.804;9.386;2023-05-20T09:20:05;22.30;99.90
44223;DHT22;29895;48.804;9.386;2023-05-20T09:22:30;22.10;99.90
44223;DHT22;29895;48.804;9.386;2023-05-20T09:24:56;22.00;99.90
44223;DHT22;29895;48.804;9.386;2023-05-20T09:27:22;21.30;99.90
44223;DHT22;29895;48.804;9.386;2023-05-20T09:29:49;21.00;99.90
44223;DHT22;29895;48.804;9.386;2023-05-20T09:32:16;21.20;99.90
44223;DHT22;29895;48.804;9.386;2023-05-20T09:34:42;21.70;99.90
44223;DHT22;29895;48.804;9.386;2023-05-20T09:37:10;21.90;99.90
44223;DHT22;29895;48.804;9.386;2023-05-20T09:42:21;22.60;99.90
44223;DHT22;29895;48.804;9.386;2023-05-20T09:44:49;22.80;99.80
44223;DHT22;29895;48.804;9.386;2023-05-20T09:47:15;22.80;99.90
44223;DHT22;29895;48.804;9.386;2023-05-20T09:49:42;22.90;99.90
44223;DHT22;29895;48.804;9.386;2023-05-20T09:52:11;22.90;99.50
44223;DHT22;29895;48.804;9.386;2023-05-20T09:54:38;22.80;99.70
44223;DHT22;29895;48.804;9.386;2023-05-20T09:57:04;22.80;99.70
44223;DHT22;29895;48.804;9.386;2023-05-20T09:59:31;22.80;99.60
44223;DHT22;29895;48.804;9.386;2023-05-20T10:01:57;22.40;99.50
44223;DHT22;29895;48.804;9.386;2023-05-20T10:04:25;22.50;99.60
44223;DHT22;29895;48.804;9.386;2023-05-20T10:18:48;22.00;99.40
44223;DHT22;29895;48.804;9.386;2023-05-20T10:21:21;21.60;99.90
44223;DHT22;29895;48.804;9.386;2023-05-20T10:23:52;21.80;99.90
44223;DHT22;29895;48.804;9.386;2023-05-20T10:26:18;21.80;99.90
44223;DHT22;29895;48.804;9.386;2023-05-20T10:28:45;22.50;99.40
44223;DHT22;29895;48.804;9.386;2023-05-20T10:33:44;22.60;99.40
44223;DHT22;29895;48.804;9.386;2023-05-20T10:36:21;23.10;99.00
44223;DHT22;29895;48.804;9.386;2023-05-20T10:38:55;23.50;98.50
44223;DHT22;29895;48.804;9.386;2023-05-20T10:41:24;23.60;97.90
44223;DHT22;29895;48.804;9.386;2023-05-20T10:44:04;22.80;98.50
44223;DHT22;29895;48.804;9.386;2023-05-20T10:46:31;22.10;98.90
44223;DHT22;29895;48.804;9.386;2023-05-20T10:48:57;21.80;99.40
44223;DHT22;29895;48.804;9.386;2023-05-20T10:51:23;22.10;99.70
44223;DHT22;29895;48.804;9.386;2023-05-20T10:53:52;22.60;98.50
44223;DHT22;29895;48.804;9.386;2023-05-20T10:56:22;22.50;98.10
44223;DHT22;29895;48.804;9.386;2023-05-20T10:58:49;22.50;98.90
44223;DHT22;29895;48.804;9.386;2023-05-20T11:01:15;22.90;98.00
44223;DHT22;29895;48.804;9.386;2023-05-20T11:03:42;23.40;97.30
44223;DHT22;29895;48.804;9.386;2023-05-20T11:06:27;24.10;96.40
44223;DHT22;29895;48.804;9.386;2023-05-20T11:08:53;25.00;96.20
44223;DHT22;29895;48.804;9.386;2023-05-20T11:11:19;25.70;95.20
44223;DHT22;29895;48.804;9.386;2023-05-20T11:13:50;26.00;94.80
44223;DHT22;29895;48.804;9.386;2023-05-20T11:16:16;25.10;94.90
44223;DHT22;29895;48.804;9.386;2023-05-20T11:18:42;23.90;96.20
44223;DHT22;29895;48.804;9.386;2023-05-20T11:21:07;23.10;97.20
44223;DHT22;29895;48.804;9.386;2023-05-20T11:23:33;23.30;97.10
44223;DHT22;29895;48.804;9.386;2023-05-20T11:25:58;23.90;95.70
44223;DHT22;29895;48.804;9.386;2023-05-20T11:28:24;24.20;95.60
44223;DHT22;29895;48.804;9.386;2023-05-20T11:30:51;23.40;96.00
44223;DHT22;29895;48.804;9.386;2023-05-20T11:33:17;23.10;96.60
44223;DHT22;29895;48.804;9.386;2023-05-20T11:38:10;24.30;95.60
44223;DHT22;29895;48.804;9.386;2023-05-20T11:40:36;24.00;95.80
44223;DHT22;29895;48.804;9.386;2023-05-20T11:43:02;24.40;95.90
44223;DHT22;29895;48.804;9.386;2023-05-20T11:45:41;24.90;94.90
44223;DHT22;29895;48.804;9.386;2023-05-20T11:48:08;25.40;94.90
44223;DHT22;29895;48.804;9.386;2023-05-20T11:50:35;26.40;93.70
44223;DHT22;29895;48.804;9.386;2023-05-20T11:53:05;25.80;93.30
44223;DHT22;29895;48.804;9.386;2023-05-20T11:55:31;25.50;94.10
44223;DHT22;29895;48.804;9.386;2023-05-20T11:58:00;24.60;94.00
44223;DHT22;29895;48.804;9.386;2023-05-20T12:00:27;24.60;93.80
44223;DHT22;29895;48.804;9.386;2023-05-20T12:02:53;24.50;94.10
44223;DHT22;29895;48.804;9.386;2023-05-20T12:05:19;25.20;93.60
44223;DHT22;29895;48.804;9.386;2023-05-20T12:07:44;25.60;93.20
44223;DHT22;29895;48.804;9.386;2023-05-20T12:10:10;25.00;93.60
44223;DHT22;29895;48.804;9.386;2023-05-20T12:12:38;24.80;93.60
44223;DHT22;29895;48.804;9.386;2023-05-20T12:15:04;24.50;93.70
44223;DHT22;29895;48.804;9.386;2023-05-20T12:17:42;24.10;94.50
44223;DHT22;29895;48.804;9.386;2023-05-20T12:20:08;24.20;94.50
44223;DHT22;29895;48.804;9.386;2023-05-20T12:22:34;24.10;95.00
44223;DHT22;29895;48.804;9.386;2023-05-20T12:25:00;24.00;94.80
44223;DHT22;29895;48.804;9.386;2023-05-20T12:27:25;24.40;94.60
44223;DHT22;29895;48.804;9.386;2023-05-20T12:29:51;24.30;94.50
44223;DHT22;29895;48.804;9.386;2023-05-20T12:32:17;24.10;94.80
44223;DHT22;29895;48.804;9.386;2023-05-20T12:34:42;24.10;94.90
44223;DHT22;29895;48.804;9.386;2023-05-20T12:37:08;24.50;94.20
44223;DHT22;29895;48.804;9.386;2023-05-20T12:39:33;24.30;94.50
44223;DHT22;29895;48.804;9.386;2023-05-20T12:41:59;24.30;94.50
44223;DHT22;29895;48.804;9.386;2023-05-20T12:44:25;24.40;94.60
44223;DHT22;29895;48.804;9.386;2023-05-20T12:46:53;24.80;94.20
44223;DHT22;29895;48.804;9.386;2023-05-20T12:49:18;25.70;93.60
44223;DHT22;29895;48.804;9.386;2023-05-20T12:51:44;25.50;93.10
44223;DHT22;29895;48.804;9.386;2023-05-20T12:54:10;25.10;93.80
44223;DHT22;29895;48.804;9.386;2023-05-20T12:56:35;24.90;93.20
44223;DHT22;29895;48.804;9.386;2023-05-20T12:59:01;24.70;93.30
44223;DHT22;29895;48.804;9.386;2023-05-20T13:01:26;24.90;93.30
44223;DHT22;29895;48.804;9.386;2023-05-20T13:03:52;24.90;93.50
44223;DHT22;29895;48.804;9.386;2023-05-20T13:06:18;24.80;93.60
44223;DHT22;29895;48.804;9.386;2023-05-20T13:08:43;25.30;93.60
44223;DHT22;29895;48.804;9.386;2023-05-20T13:11:09;25.70;93.10
44223;DHT22;29895;48.804;9.386;2023-05-20T13:13:35;26.00;92.90
44223;DHT22;29895;48.804;9.386;2023-05-20T13:16:01;26.70;92.10
44223;DHT22;29895;48.804;9.386;2023-05-20T13:18:27;26.90;91.90
44223;DHT22;29895;48.804;9.386;2023-05-20T13:20:53;26.50;91.40
44223;DHT22;29895;48.804;9.386;2023-05-20T13:23:18;25.40;92.20
44223;DHT22;29895;48.804;9.386;2023-05-20T13:25:44;25.10;92.90
44223;DHT22;29895;48.804;9.386;2023-05-20T13:28:09;24.70;93.20
44223;DHT22;29895;48.804;9.386;2023-05-20T13:30:36;24.30;93.80
44223;DHT22;29895;48.804;9.386;2023-05-20T13:33:02;24.00;93.80
44223;DHT22;29895;48.804;9.386;2023-05-20T13:35:29;24.00;94.10
44223;DHT22;29895;48.804;9.386;2023-05-20T13:37:55;24.00;93.70
44223;DHT22;29895;48.804;9.386;2023-05-20T13:40:20;23.80;94.10
44223;DHT22;29895;48.804;9.386;2023-05-20T13:42:46;23.70;94.30
44223;DHT22;29895;48.804;9.386;2023-05-20T13:45:12;23.90;94.50
44223;DHT22;29895;48.804;9.386;2023-05-20T13:47:38;24.20;94.10
44223;DHT22;29895;48.804;9.386;2023-05-20T13:50:04;24.20;94.10
44223;DHT22;29895;48.804;9.386;2023-05-20T13:52:29;24.40;93.70
44223;DHT22;29895;48.804;9.386;2023-05-20T13:54:55;24.50;93.30
44223;DHT22;29895;48.804;9.386;2023-05-20T13:57:21;24.60;93.40
44223;DHT22;29895;48.804;9.386;2023-05-20T13:59:46;24.70;93.20
44223;DHT22;29895;48.804;9.386;2023-05-20T14:02:12;25.00;93.10
44223;DHT22;29895;48.804;9.386;2023-05-20T14:04:38;25.10;92.70
44223;DHT22;29895;48.804;9.386;2023-05-20T14:07:04;24.70;93.00
44223;DHT22;29895;48.804;9.386;2023-05-20T14:09:30;24.40;93.40
44223;DHT22;29895;48.804;9.386;2023-05-20T14:11:56;24.10;93.40
44223;DHT22;29895;48.804;9.386;2023-05-20T14:14:21;24.20;93.50
44223;DHT22;29895;48.804;9.386;2023-05-20T14:16:47;24.60;93.30
44223;DHT22;29895;48.804;9.386;2023-05-20T14:19:13;25.40;92.90
44223;DHT22;29895;48.804;9.386;2023-05-20T14:21:38;25.70;92.40
44223;DHT22;29895;48.804;9.386;2023-05-20T14:24:04;25.70;92.40
44223;DHT22;29895;48.804;9.386;2023-05-20T14:26:32;26.00;92.50
44223;DHT22;29895;48.804;9.386;2023-05-20T14:28:57;26.10;92.00
44223;DHT22;29895;48.804;9.386;2023-05-20T14:31:23;25.40;92.10
44223;DHT22;29895;48.804;9.386;2023-05-20T14:33:49;25.60;92.10
44223;DHT22;29895;48.804;9.386;2023-05-20T14:36:14;25.90;92.00
44223;DHT22;29895;48.804;9.386;2023-05-20T14:38:40;26.10;91.80
44223;DHT22;29895;48.804;9.386;2023-05-20T14:41:05;25.90;91.10
44223;DHT22;29895;48.804;9.386;2023-05-20T14:43:31;25.40;91.80
44223;DHT22;29895;48.804;9.386;2023-05-20T14:45:57;25.10;92.70
44223;DHT22;29895;48.804;9.386;2023-05-20T14:48:23;24.90;92.20
44223;DHT22;29895;48.804;9.386;2023-05-20T14:50:49;24.60;92.60
44223;DHT22;29895;48.804;9.386;2023-05-20T14:53:16;24.90;92.50
44223;DHT22;29895;48.804;9.386;2023-05-20T14:55:43;24.90;92.20
44223;DHT22;29895;48.804;9.386;2023-05-20T14:58:09;24.60;92.30
44223;DHT22;29895;48.804;9.386;2023-05-20T15:00:34;24.70;92.40
44223;DHT22;29895;48.804;9.386;2023-05-20T15:03:00;24.70;92.60
44223;DHT22;29895;48.804;9.386;2023-05-20T15:05:26;24.80;92.60
44223;DHT22;29895;48.804;9.386;2023-05-20T15:07:51;24.60;92.80
44223;DHT22;29895;48.804;9.386;2023-05-20T15:10:17;24.60;92.60
44223;DHT22;29895;48.804;9.386;2023-05-20T15:12:43;24.40;92.70
44223;DHT22;29895;48.804;9.386;2023-05-20T15:15:12;24.10;93.20
44223;DHT22;29895;48.804;9.386;2023-05-20T15:17:37;24.10;93.50
44223;DHT22;29895;48.804;9.386;2023-05-20T15:20:03;23.90;93.50
44223;DHT22;29895;48.804;9.386;2023-05-20T15:22:29;23.90;93.60
44223;DHT22;29895;48.804;9.386;2023-05-20T15:24:55;24.00;93.50
44223;DHT22;29895;48.804;9.386;2023-05-20T15:27:20;24.00;93.30
44223;DHT22;29895;48.804;9.386;2023-05-20T15:29:46;24.00;93.40
44223;DHT22;29895;48.804;9.386;2023-05-20T15:32:13;24.00;93.50
44223;DHT22;29895;48.804;9.386;2023-05-20T15:34:41;24.00;93.40
44223;DHT22;29895;48.804;9.386;2023-05-20T15:37:07;23.70;94.00
44223;DHT22;29895;48.804;9.386;2023-05-20T15:39:36;23.60;94.40
44223;DHT22;29895;48.804;9.386;2023-05-20T15:42:02;23.70;94.40
44223;DHT22;29895;48.804;9.386;2023-05-20T15:44:28;23.70;94.80